createdAt,value
2018-07-06T00:02:25.825Z,17.30
2018-07-06T00:05:04.446Z,17.30
2018-07-06T00:07:42.981Z,17.27
2018-07-06T00:10:21.689Z,17.26
2018-07-06T00:13:00.389Z,17.28
2018-07-06T00:15:39.070Z,17.30
2018-07-06T00:18:17.673Z,17.33
2018-07-06T00:20:56.190Z,17.32
2018-07-06T00:23:34.577Z,17.38
2018-07-06T00:26:13.218Z,17.38
2018-07-06T00:28:52.093Z,17.42
2018-07-06T00:31:30.509Z,17.44
2018-07-06T00:34:09.137Z,17.46
2018-07-06T00:36:47.691Z,17.44
2018-07-06T00:39:26.394Z,17.44
2018-07-06T00:42:04.994Z,17.45
2018-07-06T00:44:43.749Z,17.46
2018-07-06T00:47:22.332Z,17.46
2018-07-06T00:50:00.780Z,17.43
2018-07-06T00:52:39.813Z,17.44
2018-07-06T00:55:18.337Z,17.45
2018-07-06T00:57:56.812Z,17.48
2018-07-06T01:00:36.077Z,17.48
2018-07-06T01:03:14.777Z,17.33
2018-07-06T01:05:53.269Z,17.48
2018-07-06T01:08:31.837Z,17.48
2018-07-06T01:11:10.549Z,17.50
2018-07-06T01:13:49.256Z,17.51
2018-07-06T01:16:27.806Z,17.52
2018-07-06T01:19:06.362Z,17.48
2018-07-06T01:21:44.957Z,17.47
2018-07-06T01:24:23.633Z,17.45
2018-07-06T01:27:02.429Z,17.46
2018-07-06T01:29:40.969Z,17.47
2018-07-06T01:32:19.467Z,17.50
2018-07-06T01:34:58.068Z,17.47
2018-07-06T01:37:36.889Z,17.47
2018-07-06T01:40:15.242Z,17.47
2018-07-06T01:42:53.750Z,17.46
2018-07-06T01:45:32.361Z,17.48
2018-07-06T01:48:10.865Z,17.47
2018-07-06T01:50:49.297Z,17.47
2018-07-06T01:53:28.212Z,17.50
2018-07-06T01:56:06.765Z,17.47
2018-07-06T01:58:45.444Z,17.47
2018-07-06T02:01:24.129Z,17.47
2018-07-06T02:04:02.691Z,17.47
2018-07-06T02:06:41.322Z,17.47
2018-07-06T02:09:19.909Z,17.49
2018-07-06T02:11:58.349Z,17.45
2018-07-06T02:14:36.989Z,17.43
2018-07-06T02:17:15.926Z,17.40
2018-07-06T02:19:54.501Z,17.43
2018-07-06T02:22:33.492Z,17.42
2018-07-06T02:25:12.085Z,17.46
2018-07-06T02:27:50.697Z,17.46
2018-07-06T02:30:29.272Z,17.47
2018-07-06T02:33:07.742Z,17.47
2018-07-06T02:35:46.206Z,17.48
2018-07-06T02:38:24.747Z,17.46
2018-07-06T02:41:03.358Z,17.46
2018-07-06T02:43:41.802Z,17.46
2018-07-06T02:46:20.166Z,17.44
2018-07-06T02:48:58.629Z,17.44
2018-07-06T02:51:37.294Z,17.43
2018-07-06T02:54:15.933Z,17.42
2018-07-06T02:56:54.382Z,17.42
2018-07-06T02:59:32.965Z,17.40
2018-07-06T03:02:11.457Z,17.38
2018-07-06T03:04:50.101Z,17.37
2018-07-06T03:07:28.677Z,17.38
2018-07-06T03:10:07.053Z,17.38
2018-07-06T03:12:45.609Z,17.36
2018-07-06T03:15:24.219Z,17.38
2018-07-06T03:18:02.902Z,17.40
2018-07-06T03:20:41.429Z,17.45
2018-07-06T03:23:20.068Z,17.47
2018-07-06T03:25:58.619Z,17.46
2018-07-06T03:28:37.327Z,17.44
2018-07-06T03:31:15.805Z,17.44
2018-07-06T03:33:54.333Z,17.45
2018-07-06T03:36:32.942Z,17.44
2018-07-06T03:39:11.534Z,17.41
2018-07-06T03:41:50.542Z,17.41
2018-07-06T03:44:29.118Z,17.41
2018-07-06T03:47:07.619Z,17.40
2018-07-06T03:49:46.253Z,17.40
2018-07-06T03:52:24.861Z,17.35
2018-07-06T03:55:03.494Z,17.39
2018-07-06T03:57:41.891Z,17.37
2018-07-06T04:00:20.373Z,17.38
2018-07-06T04:02:58.945Z,17.36
2018-07-06T04:05:37.585Z,17.34
2018-07-06T04:08:16.083Z,17.33
2018-07-06T04:10:54.595Z,17.31
2018-07-06T04:13:33.265Z,17.26
2018-07-06T04:16:11.713Z,17.28
2018-07-06T04:18:53.205Z,17.32
2018-07-06T04:21:31.658Z,17.33
2018-07-06T04:24:10.256Z,17.36
2018-07-06T04:26:49.458Z,17.33
2018-07-06T04:29:28.621Z,17.33
2018-07-06T04:32:07.226Z,17.35
2018-07-06T04:34:45.925Z,17.30
2018-07-06T04:37:24.453Z,17.30
2018-07-06T04:40:03.109Z,17.32
2018-07-06T04:42:41.565Z,17.36
2018-07-06T04:45:20.101Z,17.34
2018-07-06T04:47:58.696Z,17.35
2018-07-06T04:50:37.162Z,17.37
2018-07-06T04:53:15.732Z,17.35
2018-07-06T04:55:54.661Z,17.40
2018-07-06T04:58:33.309Z,17.40
2018-07-06T05:01:11.681Z,17.45
2018-07-06T05:03:50.285Z,17.47
2018-07-06T05:06:28.770Z,17.50
2018-07-06T05:09:07.373Z,17.53
2018-07-06T05:11:45.992Z,17.53
2018-07-06T05:14:24.681Z,17.56
2018-07-06T05:17:03.471Z,17.57
2018-07-06T05:19:41.921Z,17.57
2018-07-06T05:22:20.449Z,17.59
2018-07-06T05:24:58.853Z,17.58
2018-07-06T05:27:37.281Z,17.61
2018-07-06T05:30:15.910Z,17.64
2018-07-06T05:32:54.596Z,17.66
2018-07-06T05:35:33.020Z,17.68
2018-07-06T05:38:11.377Z,17.72
2018-07-06T05:40:50.137Z,17.78
2018-07-06T05:43:28.793Z,17.79
2018-07-06T05:46:07.309Z,17.84
2018-07-06T05:48:45.834Z,17.86
2018-07-06T05:51:24.477Z,17.91
2018-07-06T05:54:03.269Z,17.92
2018-07-06T05:56:41.786Z,17.98
2018-07-06T05:59:20.366Z,17.96
2018-07-06T06:01:58.853Z,17.99
2018-07-06T06:04:37.384Z,17.98
2018-07-06T06:07:15.758Z,17.96
2018-07-06T06:09:42.737Z,17.92
2018-07-06T06:12:09.938Z,17.92
2018-07-06T06:14:36.891Z,17.90
2018-07-06T06:17:04.069Z,17.94
2018-07-06T06:19:31.064Z,17.93
2018-07-06T06:21:58.065Z,17.91
2018-07-06T06:24:25.033Z,17.91
2018-07-06T06:26:52.209Z,17.88
2018-07-06T06:29:19.841Z,17.90
2018-07-06T06:31:47.106Z,17.87
2018-07-06T06:34:14.286Z,17.88
2018-07-06T06:36:41.293Z,17.87
2018-07-06T06:39:08.288Z,17.91
2018-07-06T06:41:35.321Z,17.95
2018-07-06T06:44:02.317Z,17.92
2018-07-06T06:46:29.346Z,17.92
2018-07-06T06:48:56.377Z,17.97
2018-07-06T06:51:23.533Z,18.02
2018-07-06T06:53:50.597Z,18.00
2018-07-06T06:56:17.630Z,17.97
2018-07-06T06:58:44.634Z,17.98
2018-07-06T07:01:11.865Z,17.97
2018-07-06T07:03:38.881Z,17.93
2018-07-06T07:06:05.941Z,17.89
2018-07-06T07:08:33.032Z,17.86
2018-07-06T07:11:00.041Z,17.85
2018-07-06T07:13:27.321Z,17.91
2018-07-06T07:15:54.437Z,17.94
2018-07-06T07:18:21.493Z,17.96
2018-07-06T07:20:48.576Z,17.84
2018-07-06T07:23:15.596Z,17.80
2018-07-06T07:25:42.948Z,17.76
2018-07-06T07:28:09.998Z,17.68
2018-07-06T07:30:37.019Z,17.69
2018-07-06T07:33:04.077Z,17.70
2018-07-06T07:35:31.059Z,17.71
2018-07-06T07:37:58.085Z,17.72
2018-07-06T07:40:25.130Z,17.72
2018-07-06T07:42:52.121Z,17.70
2018-07-06T07:45:19.153Z,17.71
2018-07-06T07:47:46.557Z,17.72
2018-07-06T07:50:13.637Z,17.74
2018-07-06T07:52:52.557Z,17.76
2018-07-06T07:55:19.549Z,17.78
2018-07-06T07:57:46.614Z,17.81
2018-07-06T08:00:13.649Z,17.87
2018-07-06T08:02:40.673Z,17.93
2018-07-06T08:05:07.773Z,17.97
2018-07-06T08:07:34.769Z,17.97
2018-07-06T08:10:01.795Z,18.01
2018-07-06T08:12:28.869Z,17.98
2018-07-06T08:14:55.870Z,17.98
2018-07-06T08:17:23.010Z,18.02
2018-07-06T08:19:50.107Z,17.99
2018-07-06T08:22:17.145Z,18.03
2018-07-06T08:24:44.128Z,18.12
2018-07-06T08:27:11.177Z,18.36
2018-07-06T08:29:38.153Z,18.63
2018-07-06T08:32:05.209Z,18.77
2018-07-06T08:34:43.788Z,18.84
2018-07-06T08:37:32.585Z,18.85
2018-07-06T08:39:59.745Z,18.99
2018-07-06T08:42:27.997Z,19.27
2018-07-06T08:44:55.789Z,19.48
2018-07-06T08:47:23.014Z,19.60
2018-07-06T08:49:50.181Z,19.66
2018-07-06T08:52:17.722Z,19.72
2018-07-06T08:54:44.710Z,19.70
2018-07-06T08:57:12.641Z,19.71
2018-07-06T08:59:39.645Z,19.85
2018-07-06T09:02:06.657Z,19.84
2018-07-06T09:04:33.778Z,19.94
2018-07-06T09:07:00.853Z,20.08
2018-07-06T09:09:28.142Z,20.23
2018-07-06T09:11:55.101Z,20.21
2018-07-06T09:14:22.498Z,20.35
2018-07-06T09:16:50.249Z,20.29
2018-07-06T09:19:17.286Z,20.22
2018-07-06T09:21:44.325Z,20.16
2018-07-06T09:24:11.372Z,20.22
2018-07-06T09:26:38.361Z,20.16
2018-07-06T09:29:05.393Z,20.00
2018-07-06T09:31:32.436Z,19.97
2018-07-06T09:33:59.461Z,20.03
2018-07-06T09:36:26.489Z,20.11
2018-07-06T09:38:53.516Z,20.18
2018-07-06T09:41:20.489Z,20.22
2018-07-06T09:43:47.510Z,20.16
2018-07-06T09:46:15.217Z,20.26
2018-07-06T09:48:42.177Z,20.30
2018-07-06T09:51:09.189Z,20.43
2018-07-06T09:53:36.277Z,20.56
2018-07-06T09:56:03.240Z,20.62
2018-07-06T09:58:30.309Z,20.71
2018-07-06T10:00:58.656Z,20.72
2018-07-06T10:03:26.013Z,20.74
2018-07-06T10:05:53.174Z,20.71
2018-07-06T10:08:20.160Z,20.74
2018-07-06T10:10:47.250Z,20.74
2018-07-06T10:13:14.262Z,20.78
2018-07-06T10:15:41.757Z,20.86
2018-07-06T10:18:09.422Z,20.92
2018-07-06T10:20:36.500Z,21.02
2018-07-06T10:23:03.477Z,20.92
2018-07-06T10:25:30.525Z,21.01
2018-07-06T10:28:12.254Z,21.10
2018-07-06T10:30:53.302Z,21.19
2018-07-06T10:33:20.315Z,21.33
2018-07-06T10:35:47.293Z,21.36
2018-07-06T10:38:14.336Z,21.36
2018-07-06T10:40:41.523Z,21.39
2018-07-06T10:43:08.522Z,21.39
2018-07-06T10:45:35.744Z,21.44
2018-07-06T10:48:02.822Z,21.48
2018-07-06T10:50:29.825Z,21.45
2018-07-06T10:52:56.803Z,21.33
2018-07-06T10:55:23.784Z,21.28
2018-07-06T10:57:50.759Z,21.30
2018-07-06T11:00:17.813Z,21.28
2018-07-06T11:02:44.797Z,21.43
2018-07-06T11:05:11.913Z,21.52
2018-07-06T11:07:39.027Z,21.45
2018-07-06T11:10:06.074Z,21.45
2018-07-06T11:12:33.077Z,21.46
2018-07-06T11:15:00.201Z,21.52
2018-07-06T11:17:27.173Z,21.49
2018-07-06T11:19:54.169Z,21.52
2018-07-06T11:22:21.149Z,21.62
2018-07-06T11:24:49.449Z,21.70
2018-07-06T11:27:16.725Z,21.72
2018-07-06T11:29:43.745Z,21.66
2018-07-06T11:32:10.838Z,21.55
2018-07-06T11:34:37.797Z,21.56
2018-07-06T11:37:04.836Z,21.59
2018-07-06T11:39:32.017Z,21.73
2018-07-06T11:41:59.025Z,21.79
2018-07-06T11:44:26.026Z,21.92
2018-07-06T11:46:53.046Z,22.01
2018-07-06T11:49:20.537Z,22.00
2018-07-06T11:51:47.548Z,22.08
2018-07-06T11:54:14.601Z,22.04
2018-07-06T11:56:41.641Z,22.04
2018-07-06T11:59:08.645Z,22.05
2018-07-06T12:01:35.677Z,22.16
2018-07-06T12:04:02.709Z,22.15
2018-07-06T12:06:29.745Z,22.11
2018-07-06T12:08:56.748Z,22.18
2018-07-06T12:11:24.511Z,22.20
2018-07-06T12:13:51.601Z,22.29
2018-07-06T12:16:18.692Z,22.41
2018-07-06T12:18:45.723Z,22.55
2018-07-06T12:21:12.827Z,22.56
2018-07-06T12:23:39.830Z,22.62
2018-07-06T12:26:07.069Z,22.58
2018-07-06T12:28:34.091Z,22.38
2018-07-06T12:31:01.071Z,22.44
2018-07-06T12:33:28.081Z,22.54
2018-07-06T12:35:55.081Z,22.59
2018-07-06T12:38:22.129Z,22.63
2018-07-06T12:40:49.130Z,22.73
2018-07-06T12:43:16.103Z,22.83
2018-07-06T12:45:43.165Z,22.68
2018-07-06T12:48:10.306Z,22.59
2018-07-06T12:50:37.301Z,22.60
2018-07-06T12:53:04.300Z,22.46
2018-07-06T12:55:31.801Z,22.43
2018-07-06T12:57:58.817Z,22.44
2018-07-06T13:00:25.820Z,22.29
2018-07-06T13:02:52.866Z,22.28
2018-07-06T13:05:19.969Z,22.36
2018-07-06T13:07:47.163Z,22.43
2018-07-06T13:10:14.161Z,22.51
2018-07-06T13:12:41.190Z,22.35
2018-07-06T13:15:08.203Z,22.26
2018-07-06T13:17:35.239Z,22.31
2018-07-06T13:20:02.265Z,22.36
2018-07-06T13:22:29.649Z,22.40
2018-07-06T13:24:56.754Z,22.42
2018-07-06T13:27:23.779Z,22.03
2018-07-06T13:29:50.780Z,21.84
2018-07-06T13:32:17.803Z,21.94
2018-07-06T13:34:44.853Z,22.14
2018-07-06T13:37:11.841Z,22.30
2018-07-06T13:39:39.065Z,22.28
2018-07-06T13:42:06.138Z,22.50
2018-07-06T13:44:33.132Z,22.52
2018-07-06T13:47:00.123Z,22.53
2018-07-06T13:49:27.208Z,22.60
2018-07-06T13:51:54.426Z,22.68
2018-07-06T13:54:21.461Z,22.74
2018-07-06T13:56:48.462Z,22.77
2018-07-06T13:59:15.580Z,22.81
2018-07-06T14:01:42.501Z,22.64
2018-07-06T14:04:09.505Z,22.62
2018-07-06T14:06:36.632Z,22.62
2018-07-06T14:09:04.004Z,22.66
2018-07-06T14:11:30.994Z,22.67
2018-07-06T14:13:57.982Z,22.70
2018-07-06T14:16:25.090Z,22.67
2018-07-06T14:18:52.108Z,22.33
2018-07-06T14:21:19.073Z,22.30
2018-07-06T14:23:46.114Z,22.42
2018-07-06T14:26:13.401Z,22.25
2018-07-06T14:28:40.465Z,22.26
2018-07-06T14:31:07.917Z,22.11
2018-07-06T14:33:34.977Z,21.98
2018-07-06T14:36:01.972Z,21.89
2018-07-06T14:38:28.957Z,21.97
2018-07-06T14:40:56.079Z,21.94
2018-07-06T14:43:23.072Z,21.81
2018-07-06T14:45:50.105Z,21.71
2018-07-06T14:48:17.141Z,21.57
2018-07-06T14:50:44.162Z,21.47
2018-07-06T14:53:13.345Z,21.49
2018-07-06T14:55:40.573Z,21.43
2018-07-06T14:58:07.922Z,21.43
2018-07-06T15:00:35.298Z,21.53
2018-07-06T15:03:02.489Z,21.47
2018-07-06T15:05:29.497Z,21.40
2018-07-06T15:07:57.185Z,21.35
2018-07-06T15:10:24.151Z,21.37
2018-07-06T15:12:51.182Z,21.36
2018-07-06T15:15:18.130Z,21.33
2018-07-06T15:17:45.219Z,21.41
2018-07-06T15:20:12.345Z,21.38
2018-07-06T15:22:39.478Z,21.41
2018-07-06T15:25:06.560Z,21.34
2018-07-06T15:27:33.566Z,21.29
2018-07-06T15:30:00.633Z,21.18
2018-07-06T15:32:27.585Z,21.12
2018-07-06T15:34:54.569Z,21.05
2018-07-06T15:37:21.583Z,21.07
2018-07-06T15:39:48.728Z,21.01
2018-07-06T15:42:15.747Z,21.00
2018-07-06T15:44:42.733Z,20.85
2018-07-06T15:47:09.725Z,20.90
2018-07-06T15:49:36.747Z,20.81
2018-07-06T15:52:03.717Z,20.71
2018-07-06T15:54:30.709Z,20.59
2018-07-06T15:56:57.770Z,20.66
2018-07-06T15:59:24.783Z,20.70
2018-07-06T16:01:51.801Z,20.74
2018-07-06T16:04:18.789Z,20.65
2018-07-06T16:06:45.861Z,20.55
2018-07-06T16:09:12.894Z,20.52
2018-07-06T16:11:39.890Z,20.54
2018-07-06T16:14:07.921Z,20.42
2018-07-06T16:16:34.857Z,20.32
2018-07-06T16:19:02.493Z,20.24
2018-07-06T16:21:30.708Z,20.18
2018-07-06T16:23:57.801Z,20.12
2018-07-06T16:26:24.859Z,20.11
2018-07-06T16:28:52.197Z,20.16
2018-07-06T16:31:19.209Z,20.23
2018-07-06T16:33:46.405Z,20.22
2018-07-06T16:36:13.478Z,20.17
2018-07-06T16:38:41.201Z,20.22
2018-07-06T16:41:08.601Z,20.25
2018-07-06T16:43:35.584Z,20.25
2018-07-06T16:46:02.581Z,20.21
2018-07-06T16:48:29.605Z,20.13
2018-07-06T16:50:56.694Z,19.94
2018-07-06T16:53:23.733Z,19.99
2018-07-06T16:55:50.929Z,20.02
2018-07-06T16:58:17.937Z,20.10
2018-07-06T17:00:44.970Z,20.16
2018-07-06T17:03:12.754Z,20.12
2018-07-06T17:05:40.730Z,20.13
2018-07-06T17:08:07.787Z,20.09
2018-07-06T17:10:34.913Z,19.93
2018-07-06T17:13:01.972Z,19.99
2018-07-06T17:15:29.073Z,19.96
2018-07-06T17:17:56.080Z,19.89
2018-07-06T17:20:23.149Z,19.97
2018-07-06T17:22:50.608Z,19.86
2018-07-06T17:25:17.678Z,19.97
2018-07-06T17:27:44.769Z,19.93
2018-07-06T17:30:11.917Z,19.90
2018-07-06T17:32:38.919Z,19.84
2018-07-06T17:35:06.420Z,19.85
2018-07-06T17:37:33.517Z,19.81
2018-07-06T17:40:00.777Z,19.78
2018-07-06T17:42:27.785Z,19.85
2018-07-06T17:44:55.456Z,19.94
2018-07-06T17:47:22.471Z,19.99
2018-07-06T17:49:50.496Z,20.13
2018-07-06T17:52:19.562Z,20.24
2018-07-06T17:54:49.017Z,20.24
2018-07-06T17:57:16.225Z,20.29
2018-07-06T17:59:43.313Z,20.17
2018-07-06T18:02:10.409Z,20.14
2018-07-06T18:04:37.413Z,19.98
2018-07-06T18:07:04.429Z,19.84
2018-07-06T18:09:31.525Z,19.70
2018-07-06T18:11:59.138Z,19.44
2018-07-06T18:14:26.488Z,19.39
2018-07-06T18:16:54.229Z,19.30
2018-07-06T18:19:21.569Z,19.14
2018-07-06T18:21:48.677Z,19.03
2018-07-06T18:24:16.321Z,18.96
2018-07-06T18:26:44.601Z,18.82
2018-07-06T18:29:11.763Z,18.82
2018-07-06T18:31:39.409Z,18.76
2018-07-06T18:34:06.566Z,18.63
2018-07-06T18:36:33.724Z,18.60
2018-07-06T18:39:01.373Z,18.40
2018-07-06T18:41:28.549Z,18.29
2018-07-06T18:43:55.533Z,18.22
2018-07-06T18:46:22.543Z,18.12
2018-07-06T18:48:49.542Z,18.08
2018-07-06T18:51:16.583Z,18.01
2018-07-06T18:53:43.711Z,17.98
2018-07-06T18:56:10.941Z,17.98
2018-07-06T18:58:37.973Z,17.95
2018-07-06T19:01:05.372Z,17.89
2018-07-06T19:03:32.689Z,17.86
2018-07-06T19:05:59.677Z,17.81
2018-07-06T19:08:27.345Z,17.76
2018-07-06T19:10:54.385Z,17.67
2018-07-06T19:13:21.421Z,17.65
2018-07-06T19:15:48.433Z,17.57
2018-07-06T19:18:15.529Z,17.48
2018-07-06T19:20:42.877Z,17.45
2018-07-06T19:23:09.974Z,17.43
2018-07-06T19:25:37.101Z,17.40
2018-07-06T19:28:04.162Z,17.40
2018-07-06T19:30:31.245Z,17.32
2018-07-06T19:32:58.324Z,17.26
2018-07-06T19:35:25.357Z,17.22
2018-07-06T19:37:52.365Z,17.22
2018-07-06T19:40:19.395Z,17.20
2018-07-06T19:42:46.415Z,17.15
2018-07-06T19:45:13.477Z,17.10
2018-07-06T19:47:40.556Z,17.05
2018-07-06T19:50:08.422Z,17.00
2018-07-06T19:52:35.485Z,16.93
2018-07-06T19:55:02.732Z,16.89
2018-07-06T19:57:30.787Z,16.87
2018-07-06T19:59:57.753Z,16.84
2018-07-06T20:02:24.790Z,16.81
2018-07-06T20:04:51.865Z,16.78
2018-07-06T20:07:18.893Z,16.76
2018-07-06T20:09:45.957Z,16.73
2018-07-06T20:12:13.317Z,16.72
2018-07-06T20:14:40.363Z,16.70
2018-07-06T20:17:07.740Z,16.65
2018-07-06T20:19:34.849Z,16.58
2018-07-06T20:22:01.898Z,16.57
2018-07-06T20:24:29.065Z,16.55
2018-07-06T20:26:57.144Z,16.56
2018-07-06T20:29:24.205Z,16.53
2018-07-06T20:31:51.680Z,16.55
2018-07-06T20:34:18.845Z,16.55
2018-07-06T20:36:46.460Z,16.54
2018-07-06T20:39:14.022Z,16.53
2018-07-06T20:41:41.295Z,16.48
2018-07-06T20:44:08.381Z,16.45
2018-07-06T20:46:35.512Z,16.37
2018-07-06T20:49:02.501Z,16.33
2018-07-06T20:51:29.529Z,16.29
2018-07-06T20:53:56.699Z,16.26
2018-07-06T20:56:23.847Z,16.24
2018-07-06T20:58:50.942Z,16.20
2018-07-06T21:01:17.969Z,16.17
2018-07-06T21:03:44.952Z,16.13
2018-07-06T21:06:11.925Z,16.09
2018-07-06T21:08:38.905Z,16.05
2018-07-06T21:11:06.074Z,16.01
2018-07-06T21:13:33.113Z,15.97
2018-07-06T21:16:00.179Z,15.95
2018-07-06T21:18:27.199Z,15.90
2018-07-06T21:20:54.217Z,15.84
2018-07-06T21:23:21.230Z,15.83
2018-07-06T21:25:48.221Z,15.81
2018-07-06T21:28:15.236Z,15.80
2018-07-06T21:30:42.234Z,15.78
2018-07-06T21:33:10.121Z,15.73
2018-07-06T21:35:37.113Z,15.71
2018-07-06T21:38:04.153Z,15.68
2018-07-06T21:40:31.137Z,15.64
2018-07-06T21:42:58.176Z,15.63
2018-07-06T21:45:25.204Z,15.61
2018-07-06T21:47:52.277Z,15.61
2018-07-06T21:50:19.253Z,15.58
2018-07-06T21:52:46.293Z,15.57
2018-07-06T21:55:13.409Z,15.54
2018-07-06T21:57:40.422Z,15.49
2018-07-06T22:00:07.425Z,15.47
2018-07-06T22:02:34.494Z,15.43
2018-07-06T22:05:01.477Z,15.41
2018-07-06T22:07:28.573Z,15.41
2018-07-06T22:09:55.574Z,15.41
2018-07-06T22:12:22.574Z,15.39
2018-07-06T22:14:49.565Z,15.35
2018-07-06T22:17:16.577Z,15.32
2018-07-06T22:19:43.566Z,15.28
2018-07-06T22:22:10.568Z,15.26
2018-07-06T22:24:37.569Z,15.24
2018-07-06T22:27:04.562Z,15.22
2018-07-06T22:29:31.565Z,15.19
2018-07-06T22:31:58.577Z,15.18
2018-07-06T22:34:25.605Z,15.17
2018-07-06T22:36:52.954Z,15.15
2018-07-06T22:39:20.099Z,15.14
2018-07-06T22:41:47.097Z,15.11
2018-07-06T22:44:14.145Z,15.10
2018-07-06T22:46:41.114Z,15.08
2018-07-06T22:49:08.105Z,15.07
2018-07-06T22:51:35.093Z,15.06
2018-07-06T22:54:02.215Z,15.02
2018-07-06T22:56:29.652Z,15.00
2018-07-06T22:58:56.905Z,14.96
2018-07-06T23:01:23.910Z,14.93
2018-07-06T23:03:50.933Z,14.92
2018-07-06T23:06:17.987Z,14.92
2018-07-06T23:08:44.981Z,14.93
2018-07-06T23:11:12.116Z,14.90
2018-07-06T23:13:39.205Z,14.89
2018-07-06T23:16:06.257Z,14.89
2018-07-06T23:18:33.307Z,14.88
2018-07-06T23:21:00.489Z,14.89
2018-07-06T23:23:27.473Z,14.90
2018-07-06T23:25:54.457Z,14.89
2018-07-06T23:28:21.479Z,14.88
2018-07-06T23:30:48.553Z,14.89
2018-07-06T23:33:15.549Z,14.91
2018-07-06T23:35:42.557Z,14.90
2018-07-06T23:38:09.588Z,14.89
2018-07-06T23:40:36.563Z,14.86
2018-07-06T23:43:03.647Z,14.83
2018-07-06T23:45:30.605Z,14.82
2018-07-06T23:47:57.617Z,14.80
2018-07-06T23:50:24.669Z,14.79
2018-07-06T23:52:51.672Z,14.78
2018-07-06T23:55:18.929Z,14.74
2018-07-06T23:57:46.326Z,14.75
